Airfield :
LOGIN :

Register | Disclaimer

   EN    FR    IT 

 










Legend :    VFR   Marginal VFR   IFR   Intensive IFR   Very Intensive IFR
Visi :
Ceiling :
>= 8 km
>= 3000ft
5 to 8 km
1000 to 3000 ft
1500m to 5 km
500 to 1000 ft
800 to 1500m
200 to 500 ft
< 800m
< 200 ft
Symbols :   Thunderstorms  Fog  Heavy snow  Heavy precipitations  Wind > 20 kt
SIGMETs :     Misc.  Thunderstorms  Icing  Turbulence  Mountain Waves  Volcanic Ashes






- Airport Elevation : 74 ft
- IATA code : EIN


EHEH - Eindhoven

CURRENT METAR :
  • 270839Z AUTO 17007KT 140V220 9999 -DZ FEW029 SCT034 BKN038 03/01 Q1000 BLU 18007KT 9999 BKN030 BKN035 TEMPO FEW010 SCT015

EXPIRED METARs :
  • 270825Z AUTO 18007KT 150V210 9999 -DZ BKN036 OVC041 03/01 Q1000 REDZ BLU 18007KT 9999 SCT015 BKN020 BKN030 TEMPO SCT010
  • 270806Z AUTO 18008KT 150V220 9999 SCT011 BKN014 BKN030 03/01 Q1001 GRN 18007KT 9999 SCT015 BKN020 BKN030 TEMPO SCT010
  • 270755Z AUTO 19008KT 9999 -UP FEW024 BKN030 OVC038 03/01 Q1001 BLU 18007KT 9999 FEW020 BKN030 BECMG FEW015 SCT020 BKN025
  • 270725Z AUTO 18008KT 140V210 9999 BKN041 BKN048 BKN066 03/01 Q1001 BLU 18007KT 9999 BKN040 BKN050 BECMG BKN030
  • 270655Z AUTO 18008KT 9999 BKN046 OVC052 02/01 Q1001 BLU 17007KT CAVOK BECMG SCT045
  • 270625Z AUTO 18008KT 9999 FEW073 SCT087 BKN094 02/01 Q1002 BLU 17007KT CAVOK BECMG SCT045
  • 270555Z AUTO 17008KT 9999 FEW060 BKN081 OVC092 02/01 Q1003 BLU 17007KT CAVOK BECMG SCT045

TAF TAF EHEH
Valid from the 27 at 06:00 until the 28 at 12:00 UTC


270538Z 2706/2812 17006KT 9999 SCT035 OVC060
BECMG 2707/2710 3000 RASN BKN006 OVC008
TEMPO 2707/2718 1800 -SNRA SCT002 OVC006
PROB30
TEMPO 2711/2717 1000 SNRA SCT001 BKN002
BECMG 2710/2713 13005KT
BECMG 2715/2718 29008KT
PROB40
TEMPO 2717/2720 32015G25KT 2000 SHRASN SCT008 BKN012 SCT020CB
BECMG 2718/2720 9999 NSW FEW020 SCT030
BECMG 2809/2812 19010KT



MET'MAP, your aeronautical weather chart ! - Copyright ORBIFLY December 2007 - Disclaimer

ORBIFLY MET'MAP TEAM :

Programming & Development : Alexandra Zaïnal
Concept & original design : Baudouin d'Aumeries
Assistance for programming : Marc-Olivier Méhu
Technical & hardware support : Manuel Goepfert

Contact : metmap@orbifly.com




SOURCES & CREDITS :

   NOAA